createdAt,value
2022-08-20T00:01:02.121Z,101088.22
2022-08-20T00:02:09.715Z,101087.16
2022-08-20T00:03:18.132Z,101092.56
2022-08-20T00:04:19.853Z,101089.03
2022-08-20T00:05:27.018Z,101084.66
2022-08-20T00:06:28.666Z,101085.50
2022-08-20T00:07:31.182Z,101085.50
2022-08-20T00:08:32.935Z,101081.75
2022-08-20T00:09:36.458Z,101082.59
2022-08-20T00:10:44.005Z,101076.34
2022-08-20T00:11:50.378Z,101080.09
2022-08-20T00:12:52.727Z,101079.25
2022-08-20T00:13:58.289Z,101081.13
2022-08-20T00:15:01.815Z,101078.41
2022-08-20T00:16:05.176Z,101079.25
2022-08-20T00:17:06.848Z,101076.72
2022-08-20T00:18:09.812Z,101079.63
2022-08-20T00:19:15.426Z,101079.63
2022-08-20T00:20:20.003Z,101081.47
2022-08-20T00:21:25.300Z,101075.41
2022-08-20T00:22:28.009Z,101076.47
2022-08-20T00:23:30.749Z,101078.31
2022-08-20T00:24:32.931Z,101077.47
2022-08-20T00:25:35.672Z,101076.63
2022-08-20T00:26:37.840Z,101081.22
2022-08-20T00:27:54.622Z,101076.00
2022-08-20T00:28:57.345Z,101079.94
2022-08-20T00:29:59.271Z,101082.19
2022-08-20T00:31:05.102Z,101084.25
2022-08-20T00:32:07.391Z,101080.06
2022-08-20T00:33:12.777Z,101082.97
2022-08-20T00:34:15.378Z,101086.88
2022-08-20T00:35:18.176Z,101091.44
2022-08-20T00:36:22.355Z,101087.25
2022-08-20T00:37:34.275Z,101083.94
2022-08-20T00:38:37.807Z,101082.25
2022-08-20T00:39:39.616Z,101084.09
2022-08-20T00:40:46.827Z,101082.63
2022-08-20T00:41:48.429Z,101085.97
2022-08-20T00:42:53.246Z,101077.22
2022-08-20T00:44:07.172Z,101082.63
2022-08-20T00:45:10.771Z,101073.03
2022-08-20T00:46:16.813Z,101072.19
2022-08-20T00:47:20.494Z,101076.97
2022-08-20T00:48:22.578Z,101073.59
2022-08-20T00:49:28.069Z,101085.66
2022-08-20T00:50:34.048Z,101076.91
2022-08-20T00:51:39.858Z,101070.00
2022-08-20T00:52:49.945Z,101076.25
2022-08-20T00:53:53.193Z,101075.41
2022-08-20T00:55:00.078Z,101072.06
2022-08-20T00:56:02.518Z,101079.16
2022-08-20T00:57:08.715Z,101072.06
2022-08-20T00:58:10.358Z,101070.19
2022-08-20T00:59:16.359Z,101071.03
2022-08-20T01:00:22.208Z,101066.25
2022-08-20T01:01:26.801Z,101066.25
2022-08-20T01:02:31.328Z,101063.78
2022-08-20T01:03:34.754Z,101070.00
2022-08-20T01:04:37.186Z,101070.19
2022-08-20T01:05:44.632Z,101070.38
2022-08-20T01:06:47.725Z,101068.72
2022-08-20T01:07:53.555Z,101067.88
2022-08-20T01:08:56.191Z,101067.03
2022-08-20T01:09:59.562Z,101068.06
2022-08-20T01:11:18.945Z,101063.69
2022-08-20T01:12:23.570Z,101058.28
2022-08-20T01:13:27.706Z,101066.41
2022-08-20T01:14:38.283Z,101071.97
2022-08-20T01:15:43.828Z,101065.09
2022-08-20T01:16:51.317Z,101068.81
2022-08-20T01:17:57.843Z,101062.78
2022-08-20T01:19:01.374Z,101067.34
2022-08-20T01:20:07.589Z,101071.91
2022-08-20T01:21:10.974Z,101077.31
2022-08-20T01:22:36.351Z,101081.03
2022-08-20T01:23:44.850Z,101085.59
2022-08-20T01:24:50.284Z,101086.66
2022-08-20T01:25:57.835Z,101087.50
2022-08-20T01:27:04.106Z,101087.50
2022-08-20T01:28:06.438Z,101086.44
2022-08-20T01:29:12.618Z,101079.38
2022-08-20T01:30:14.274Z,101082.09
2022-08-20T01:31:20.019Z,101083.09
2022-08-20T01:32:21.985Z,101083.09
2022-08-20T01:33:25.414Z,101076.84
2022-08-20T01:34:27.497Z,101072.28
2022-08-20T01:35:30.223Z,101082.25
2022-08-20T01:36:37.790Z,101078.72
2022-08-20T01:37:39.424Z,101077.06
2022-08-20T01:38:54.150Z,101085.34
2022-08-20T01:39:56.446Z,101080.78
2022-08-20T01:41:11.637Z,101079.75
2022-08-20T01:42:22.064Z,101080.78
2022-08-20T01:43:24.145Z,101082.66
2022-08-20T01:44:26.902Z,101080.97
2022-08-20T01:45:30.961Z,101073.69
2022-08-20T01:46:38.961Z,101076.41
2022-08-20T01:47:45.784Z,101082.47
2022-08-20T01:48:53.111Z,101087.22
2022-08-20T01:49:56.686Z,101082.81
2022-08-20T01:51:04.468Z,101088.22
2022-08-20T01:52:08.269Z,101084.88
2022-08-20T01:53:17.896Z,101089.66
2022-08-20T01:54:20.185Z,101090.66
2022-08-20T01:55:22.931Z,101091.66
2022-08-20T01:56:30.667Z,101091.03
2022-08-20T01:57:35.946Z,101090.00
2022-08-20T01:58:41.817Z,101094.56
2022-08-20T01:59:45.166Z,101083.75
2022-08-20T02:00:47.022Z,101093.50
2022-08-20T02:01:49.989Z,101091.84
2022-08-20T02:02:51.960Z,101093.91
2022-08-20T02:03:55.518Z,101101.19
2022-08-20T02:05:00.745Z,101099.50
2022-08-20T02:06:03.316Z,101092.25
2022-08-20T02:07:07.000Z,101097.81
2022-08-20T02:08:09.656Z,101097.81
2022-08-20T02:09:15.932Z,101101.53
2022-08-20T02:10:20.075Z,101094.47
2022-08-20T02:11:22.925Z,101101.75
2022-08-20T02:12:27.047Z,101100.06
2022-08-20T02:13:29.044Z,101093.81
2022-08-20T02:14:32.755Z,101095.50
2022-08-20T02:15:35.238Z,101095.50
2022-08-20T02:16:43.726Z,101092.78
2022-08-20T02:17:57.812Z,101096.34
2022-08-20T02:19:04.933Z,101092.78
2022-08-20T02:20:11.279Z,101099.03
2022-08-20T02:21:14.047Z,101098.19
2022-08-20T02:22:21.531Z,101091.94
2022-08-20T02:23:24.410Z,101091.09
2022-08-20T02:24:26.141Z,101093.81
2022-08-20T02:25:32.642Z,101093.81
2022-08-20T02:26:37.745Z,101095.69
2022-08-20T02:27:44.323Z,101090.47
2022-08-20T02:28:50.625Z,101086.09
2022-08-20T02:29:53.703Z,101098.56
2022-08-20T02:30:55.536Z,101096.50
2022-08-20T02:32:23.737Z,101091.09
2022-08-20T02:33:24.235Z,101092.78
2022-08-20T02:34:27.281Z,101094.66
2022-08-20T02:35:29.711Z,101097.34
2022-08-20T02:36:33.574Z,101089.44
2022-08-20T02:37:35.689Z,101089.44
2022-08-20T02:38:38.926Z,101093.16
2022-08-20T02:39:41.107Z,101095.69
2022-08-20T02:40:45.050Z,101093.16
2022-08-20T02:41:47.602Z,101093.16
2022-08-20T02:42:50.839Z,101091.09
2022-08-20T02:43:53.709Z,101094.47
2022-08-20T02:44:57.989Z,101102.59
2022-08-20T02:46:02.391Z,101090.72
2022-08-20T02:47:04.581Z,101087.84
2022-08-20T02:48:07.276Z,101088.69
2022-08-20T02:49:08.907Z,101094.94
2022-08-20T02:50:14.411Z,101084.97
2022-08-20T02:51:17.048Z,101090.38
2022-08-20T02:52:32.260Z,101091.19
2022-08-20T02:53:37.872Z,101093.72
2022-08-20T02:54:39.527Z,101094.56
2022-08-20T02:55:42.102Z,101092.88
2022-08-20T02:56:43.996Z,101093.72
2022-08-20T02:57:46.639Z,101092.88
2022-08-20T02:58:55.093Z,101096.44
2022-08-20T02:59:56.705Z,101091.84
2022-08-20T03:00:59.631Z,101088.31
2022-08-20T03:02:02.105Z,101089.16
2022-08-20T03:03:04.813Z,101086.63
2022-08-20T03:04:06.597Z,101086.63
2022-08-20T03:05:10.141Z,101081.22
2022-08-20T03:06:12.799Z,101086.63
2022-08-20T03:07:15.657Z,101084.97
2022-08-20T03:08:17.694Z,101086.63
2022-08-20T03:09:20.291Z,101084.97
2022-08-20T03:10:23.368Z,101090.38
2022-08-20T03:11:26.379Z,101084.97
2022-08-20T03:12:27.989Z,101084.97
2022-08-20T03:13:30.590Z,101089.34
2022-08-20T03:14:34.325Z,101084.59
2022-08-20T03:15:36.850Z,101078.34
2022-08-20T03:16:39.461Z,101081.06
2022-08-20T03:17:41.061Z,101084.59
2022-08-20T03:18:46.630Z,101088.94
2022-08-20T03:19:48.225Z,101075.81
2022-08-20T03:20:52.270Z,101078.53
2022-08-20T03:21:54.038Z,101077.88
2022-08-20T03:22:56.941Z,101083.28
2022-08-20T03:23:58.739Z,101079.09
2022-08-20T03:25:01.259Z,101079.91
2022-08-20T03:26:04.987Z,101074.50
2022-08-20T03:27:06.650Z,101081.59
2022-08-20T03:28:10.161Z,101083.28
2022-08-20T03:29:12.063Z,101081.59
2022-08-20T03:30:17.947Z,101079.75
2022-08-20T03:31:19.636Z,101080.59
2022-08-20T03:32:22.593Z,101077.88
2022-08-20T03:33:24.184Z,101078.72
2022-08-20T03:34:26.720Z,101084.13
2022-08-20T03:35:32.016Z,101078.72
2022-08-20T03:36:34.639Z,101079.75
2022-08-20T03:37:37.461Z,101068.75
2022-08-20T03:38:42.454Z,101080.38
2022-08-20T03:39:44.905Z,101072.47
2022-08-20T03:40:49.070Z,101079.56
2022-08-20T03:41:50.640Z,101072.47
2022-08-20T03:42:53.458Z,101073.31
2022-08-20T03:43:55.200Z,101071.63
2022-08-20T03:44:59.009Z,101070.78
2022-08-20T03:46:02.434Z,101064.75
2022-08-20T03:47:07.589Z,101062.06
2022-08-20T03:48:11.320Z,101062.06
2022-08-20T03:49:13.872Z,101055.59
2022-08-20T03:50:23.009Z,101058.31
2022-08-20T03:51:25.899Z,101059.16
2022-08-20T03:52:29.318Z,101053.75
2022-08-20T03:53:32.306Z,101059.16
2022-08-20T03:54:33.972Z,101054.59
2022-08-20T03:55:37.192Z,101061.66
2022-08-20T03:56:39.265Z,101062.50
2022-08-20T03:57:46.549Z,101066.22
2022-08-20T03:58:48.251Z,101076.19
2022-08-20T03:59:54.878Z,101066.41
2022-08-20T04:01:02.179Z,101069.31
2022-08-20T04:02:06.479Z,101069.09
2022-08-20T04:03:08.720Z,101079.91
2022-08-20T04:04:12.062Z,101073.72
2022-08-20T04:05:14.233Z,101078.91
2022-08-20T04:06:18.444Z,101078.91
2022-08-20T04:07:25.685Z,101080.75
2022-08-20T04:08:30.312Z,101087.22
2022-08-20T04:09:31.877Z,101087.38
2022-08-20T04:10:34.483Z,101086.38
2022-08-20T04:11:37.208Z,101082.81
2022-08-20T04:12:40.816Z,101093.63
2022-08-20T04:13:50.543Z,101091.94
2022-08-20T04:14:54.090Z,101094.84
2022-08-20T04:15:55.766Z,101096.06
2022-08-20T04:16:59.763Z,101098.97
2022-08-20T04:18:01.529Z,101097.28
2022-08-20T04:19:04.925Z,101092.25
2022-08-20T04:20:07.147Z,101102.41
2022-08-20T04:21:09.861Z,101103.63
2022-08-20T04:22:13.563Z,101100.09
2022-08-20T04:23:16.179Z,101105.50
2022-08-20T04:24:22.559Z,101105.66
2022-08-20T04:25:36.249Z,101110.44
2022-08-20T04:26:38.057Z,101108.28
2022-08-20T04:27:41.267Z,101103.25
2022-08-20T04:28:42.845Z,101107.34
2022-08-20T04:29:45.612Z,101109.78
2022-08-20T04:30:51.882Z,101110.16
2022-08-20T04:31:55.840Z,101115.91
2022-08-20T04:32:59.597Z,101121.69
2022-08-20T04:34:03.090Z,101128.28
2022-08-20T04:35:07.180Z,101119.53
2022-08-20T04:36:09.850Z,101128.16
2022-08-20T04:37:17.229Z,101112.72
2022-08-20T04:38:26.079Z,101101.31
2022-08-20T04:40:09.405Z,101105.19
2022-08-20T04:41:11.107Z,101114.72
2022-08-20T04:42:24.153Z,101116.00
2022-08-20T04:43:29.488Z,101112.53
2022-08-20T04:44:31.135Z,101113.25
2022-08-20T04:45:34.210Z,101115.19
2022-08-20T04:46:35.779Z,101112.72
2022-08-20T04:47:38.468Z,101117.25
2022-08-20T04:48:41.443Z,101122.72
2022-08-20T04:49:51.348Z,101117.84
2022-08-20T04:51:01.480Z,101125.63
2022-08-20T04:52:06.990Z,101118.91
2022-08-20T04:53:11.613Z,101120.59
2022-08-20T04:54:14.448Z,101115.88
2022-08-20T04:55:17.590Z,101119.88
2022-08-20T04:56:24.279Z,101116.00
2022-08-20T04:57:26.544Z,101121.88
2022-08-20T04:58:33.573Z,101117.13
2022-08-20T04:59:35.200Z,101115.13
2022-08-20T05:00:38.622Z,101124.69
2022-08-20T05:01:40.307Z,101111.03
2022-08-20T05:02:43.482Z,101120.16
2022-08-20T05:03:48.166Z,101115.13
2022-08-20T05:04:49.880Z,101115.13
2022-08-20T05:05:53.369Z,101113.44
2022-08-20T05:06:55.553Z,101113.44
2022-08-20T05:07:58.873Z,101112.78
2022-08-20T05:09:01.148Z,101114.78
2022-08-20T05:10:05.129Z,101118.69
2022-08-20T05:11:34.698Z,101119.03
2022-08-20T05:12:31.828Z,101118.56
2022-08-20T05:13:33.475Z,101120.75
2022-08-20T05:14:36.094Z,101123.81
2022-08-20T05:15:39.443Z,101126.88
2022-08-20T05:16:42.112Z,101135.09
2022-08-20T05:17:44.355Z,101136.31
2022-08-20T05:18:51.708Z,101139.84
2022-08-20T05:19:54.433Z,101139.84
2022-08-20T05:21:04.598Z,101134.09
2022-08-20T05:22:06.284Z,101136.63
2022-08-20T05:23:11.640Z,101138.28
2022-08-20T05:24:13.216Z,101135.25
2022-08-20T05:25:15.834Z,101137.59
2022-08-20T05:26:19.944Z,101142.28
2022-08-20T05:27:25.124Z,101139.25
2022-08-20T05:28:32.614Z,101145.28
2022-08-20T05:29:38.111Z,101140.06
2022-08-20T05:30:41.454Z,101138.22
2022-08-20T05:31:44.489Z,101139.06
2022-08-20T05:32:46.884Z,101132.81
2022-08-20T05:33:51.538Z,101142.44
2022-08-20T05:34:53.923Z,101139.72
2022-08-20T05:35:58.525Z,101147.81
2022-08-20T05:37:04.271Z,101154.03
2022-08-20T05:38:13.080Z,101146.13
2022-08-20T05:39:15.472Z,101149.84
2022-08-20T05:40:18.167Z,101153.38
2022-08-20T05:41:29.060Z,101146.13
2022-08-20T05:42:31.084Z,101150.50
2022-08-20T05:43:34.456Z,101152.38
2022-08-20T05:44:37.567Z,101160.25
2022-08-20T05:45:43.664Z,101157.75
2022-08-20T05:46:48.006Z,101155.91
2022-08-20T05:47:53.416Z,101159.75
2022-08-20T05:49:01.283Z,101164.50
2022-08-20T05:50:05.243Z,101164.19
2022-08-20T05:51:06.819Z,101164.53
2022-08-20T05:52:09.349Z,101160.34
2022-08-20T05:53:11.405Z,101154.28
2022-08-20T05:54:14.657Z,101163.38
2022-08-20T05:55:16.416Z,101159.84
2022-08-20T05:56:18.968Z,101168.13
2022-08-20T05:57:23.390Z,101165.59
2022-08-20T05:58:29.113Z,101159.34
2022-08-20T05:59:30.783Z,101156.50
2022-08-20T06:00:34.663Z,101162.72
2022-08-20T06:01:38.599Z,101162.38
2022-08-20T06:02:59.325Z,101158.31
2022-08-20T06:04:21.367Z,101158.97
2022-08-20T06:05:24.186Z,101165.38
2022-08-20T06:06:44.497Z,101163.72
2022-08-20T06:07:50.533Z,101160.34
2022-08-20T06:08:52.502Z,101163.38
2022-08-20T06:09:56.572Z,101160.69
2022-08-20T06:10:59.223Z,101162.38
2022-08-20T06:12:04.363Z,101161.34
2022-08-20T06:13:06.853Z,101163.22
2022-08-20T06:14:09.478Z,101165.91
2022-08-20T06:15:13.137Z,101164.22
2022-08-20T06:16:14.991Z,101161.53
2022-08-20T06:17:22.191Z,101161.34
2022-08-20T06:18:28.642Z,101158.66
2022-08-20T06:19:33.616Z,101166.56
2022-08-20T06:20:36.328Z,101162.88
2022-08-20T06:21:39.668Z,101164.72
2022-08-20T06:22:41.331Z,101162.03
2022-08-20T06:23:56.580Z,101161.19
2022-08-20T06:25:00.441Z,101157.47
2022-08-20T06:26:02.043Z,101158.31
2022-08-20T06:27:06.017Z,101159.97
2022-08-20T06:28:07.688Z,101161.03
2022-08-20T06:29:10.344Z,101161.19
2022-08-20T06:30:13.935Z,101158.66
2022-08-20T06:31:16.525Z,101155.31
2022-08-20T06:32:19.771Z,101158.00
2022-08-20T06:33:31.532Z,101155.31
2022-08-20T06:34:34.566Z,101165.72
2022-08-20T06:35:37.653Z,101165.72
2022-08-20T06:36:39.352Z,101162.88
2022-08-20T06:37:43.010Z,101166.72
2022-08-20T06:38:46.078Z,101159.00
2022-08-20T06:39:48.740Z,101165.22
2022-08-20T06:40:50.504Z,101169.78
2022-08-20T06:41:56.096Z,101161.53
2022-08-20T06:42:58.096Z,101165.91
2022-08-20T06:44:00.615Z,101170.28
2022-08-20T06:45:05.714Z,101170.13
2022-08-20T06:46:08.510Z,101171.59
2022-08-20T06:47:10.168Z,101172.59
2022-08-20T06:48:15.482Z,101166.69
2022-08-20T06:49:17.206Z,101171.53
2022-08-20T06:50:24.352Z,101175.38
2022-08-20T06:51:26.054Z,101175.06
2022-08-20T06:53:03.278Z,101172.03
2022-08-20T06:53:51.340Z,101167.63
2022-08-20T06:54:52.950Z,101177.41
2022-08-20T06:55:56.775Z,101177.22
2022-08-20T06:56:58.369Z,101171.66
2022-08-20T06:58:03.668Z,101172.97
2022-08-20T06:59:05.260Z,101183.59
2022-08-20T07:00:10.990Z,101179.88
2022-08-20T07:01:14.858Z,101184.06
2022-08-20T07:02:17.038Z,101187.63
2022-08-20T07:03:20.137Z,101179.03
2022-08-20T07:04:22.263Z,101181.91
2022-08-20T07:05:26.684Z,101185.44
2022-08-20T07:06:28.375Z,101187.28
2022-08-20T07:07:31.144Z,101185.44
2022-08-20T07:08:32.765Z,101183.59
2022-08-20T07:09:35.420Z,101190.00
2022-08-20T07:10:37.444Z,101186.44
2022-08-20T07:11:44.479Z,101189.16
2022-08-20T07:12:46.883Z,101191.84
2022-08-20T07:13:49.579Z,101202.63
2022-08-20T07:14:53.739Z,101195.56
2022-08-20T07:15:56.843Z,101197.22
2022-08-20T07:16:58.521Z,101198.06
2022-08-20T07:18:05.052Z,101196.91
2022-08-20T07:19:08.299Z,101190.47
2022-08-20T07:20:13.928Z,101202.59
2022-08-20T07:21:17.362Z,101194.16
2022-08-20T07:22:20.261Z,101207.13
2022-08-20T07:23:23.393Z,101198.81
2022-08-20T07:24:26.156Z,101200.16
2022-08-20T07:25:36.097Z,101199.78
2022-08-20T07:26:37.860Z,101205.19
2022-08-20T07:27:41.239Z,101206.03
2022-08-20T07:28:42.811Z,101203.34
2022-08-20T07:30:03.240Z,101204.34
2022-08-20T07:31:24.213Z,101209.25
2022-08-20T07:32:39.347Z,101209.44
2022-08-20T07:33:41.779Z,101207.13
2022-08-20T07:34:44.773Z,101209.81
2022-08-20T07:35:48.866Z,101215.38
2022-08-20T07:36:53.042Z,101212.66
2022-08-20T07:37:56.979Z,101232.38
2022-08-20T07:39:05.865Z,101220.75
2022-08-20T07:40:13.149Z,101219.25
2022-08-20T07:41:16.813Z,101222.47
2022-08-20T07:42:19.483Z,101219.13
2022-08-20T07:43:24.062Z,101219.28
2022-08-20T07:44:30.865Z,101225.53
2022-08-20T07:45:38.975Z,101222.66
2022-08-20T07:46:41.931Z,101221.63
2022-08-20T07:47:43.504Z,101226.22
2022-08-20T07:48:49.604Z,101222.47
2022-08-20T07:49:51.213Z,101228.56
2022-08-20T07:50:55.050Z,101225.84
2022-08-20T07:51:58.278Z,101225.66
2022-08-20T07:53:01.224Z,101231.91
2022-08-20T07:54:02.935Z,101236.28
2022-08-20T07:55:07.667Z,101232.38
2022-08-20T07:56:13.558Z,101240.47
2022-08-20T07:57:17.251Z,101233.25
2022-08-20T07:58:21.300Z,101238.28
2022-08-20T07:59:30.618Z,101239.97
2022-08-20T08:00:32.835Z,101239.97
2022-08-20T08:01:35.463Z,101240.13
2022-08-20T08:02:37.420Z,101241.97
2022-08-20T08:03:49.628Z,101244.69
2022-08-20T08:04:52.288Z,101245.72
2022-08-20T08:05:57.683Z,101247.38
2022-08-20T08:07:01.822Z,101248.06
2022-08-20T08:08:07.477Z,101249.72
2022-08-20T08:09:14.029Z,101238.56
2022-08-20T08:10:21.952Z,101240.91
2022-08-20T08:11:24.695Z,101246.78
2022-08-20T08:12:36.369Z,101243.56
2022-08-20T08:13:41.011Z,101246.91
2022-08-20T08:14:45.502Z,101240.34
2022-08-20T08:15:51.315Z,101246.19
2022-08-20T08:16:55.346Z,101245.03
2022-08-20T08:18:01.437Z,101243.81
2022-08-20T08:19:06.463Z,101243.63
2022-08-20T08:20:12.117Z,101244.47
2022-08-20T08:21:14.337Z,101240.75
2022-08-20T08:22:20.360Z,101241.78
2022-08-20T08:23:24.658Z,101246.69
2022-08-20T08:24:35.428Z,101244.34
2022-08-20T08:25:36.997Z,101244.53
2022-08-20T08:26:39.851Z,101249.09
2022-08-20T08:27:41.486Z,101254.28
2022-08-20T08:28:44.969Z,101245.88
2022-08-20T08:29:46.961Z,101250.91
2022-08-20T08:30:50.073Z,101245.50
2022-08-20T08:31:52.282Z,101249.03
2022-08-20T08:33:12.568Z,101250.91
2022-08-20T08:34:15.254Z,101254.97
2022-08-20T08:35:17.634Z,101255.81
2022-08-20T08:36:20.206Z,101251.28
2022-08-20T08:37:23.226Z,101251.28
2022-08-20T08:38:26.686Z,101253.97
2022-08-20T08:39:35.009Z,101251.44
2022-08-20T08:40:38.650Z,101254.97
2022-08-20T08:41:49.500Z,101253.97
2022-08-20T08:42:58.034Z,101259.00
2022-08-20T08:44:07.391Z,101251.84
2022-08-20T08:45:10.716Z,101252.16
2022-08-20T08:46:14.435Z,101262.44
2022-08-20T08:47:25.076Z,101262.91
2022-08-20T08:48:33.254Z,101268.31
2022-08-20T08:49:38.393Z,101255.66
2022-08-20T08:50:53.253Z,101260.06
2022-08-20T08:52:00.225Z,101255.50
2022-08-20T08:53:05.662Z,101261.91
2022-08-20T08:54:09.415Z,101276.41
2022-08-20T08:55:18.194Z,101263.75
2022-08-20T08:56:22.031Z,101262.75
2022-08-20T08:57:24.318Z,101257.19
2022-08-20T08:58:27.902Z,101264.72
2022-08-20T08:59:52.509Z,101268.56
2022-08-20T09:01:01.949Z,101273.78
2022-08-20T09:02:07.888Z,101270.25
2022-08-20T09:03:12.377Z,101279.34
2022-08-20T09:04:17.503Z,101273.16
2022-08-20T09:05:27.503Z,101276.84
2022-08-20T09:06:30.108Z,101276.00
2022-08-20T09:07:33.500Z,101277.50
2022-08-20T09:08:42.531Z,101281.03
2022-08-20T09:09:46.331Z,101280.03
2022-08-20T09:10:48.947Z,101279.66
2022-08-20T09:11:56.578Z,101278.09
2022-08-20T09:12:59.978Z,101283.34
2022-08-20T09:14:01.613Z,101281.66
2022-08-20T09:15:06.853Z,101284.19
2022-08-20T09:16:08.594Z,101285.84
2022-08-20T09:17:11.515Z,101286.69
2022-08-20T09:18:13.146Z,101290.06
2022-08-20T09:19:15.882Z,101291.72
2022-08-20T09:20:18.351Z,101289.34
2022-08-20T09:21:21.227Z,101292.69
2022-08-20T09:22:25.776Z,101289.81
2022-08-20T09:23:28.512Z,101298.09
2022-08-20T09:24:31.487Z,101292.69
2022-08-20T09:25:34.159Z,101298.94
2022-08-20T09:26:39.055Z,101291.34
2022-08-20T09:27:43.518Z,101298.44
2022-08-20T09:28:49.971Z,101299.28
2022-08-20T09:29:55.109Z,101301.16
2022-08-20T09:30:57.318Z,101295.56
2022-08-20T09:32:09.576Z,101295.22
2022-08-20T09:33:12.678Z,101298.56
2022-08-20T09:34:14.351Z,101301.75
2022-08-20T09:35:17.202Z,101300.38
2022-08-20T09:36:31.562Z,101296.63
2022-08-20T09:37:37.674Z,101304.34
2022-08-20T09:38:40.719Z,101303.53
2022-08-20T09:39:43.880Z,101302.31
2022-08-20T09:40:46.624Z,101301.47
2022-08-20T09:41:48.231Z,101303.19
2022-08-20T09:42:51.641Z,101307.53
2022-08-20T09:43:53.397Z,101304.66
2022-08-20T09:44:56.382Z,101300.59
2022-08-20T09:45:57.970Z,101305.63
2022-08-20T09:47:00.592Z,101310.66
2022-08-20T09:48:02.609Z,101312.31
2022-08-20T09:49:05.291Z,101310.28
2022-08-20T09:50:09.828Z,101310.94
2022-08-20T09:51:12.501Z,101306.19
2022-08-20T09:52:20.531Z,101314.97
2022-08-20T09:53:23.283Z,101317.50
2022-08-20T09:54:29.829Z,101309.22
2022-08-20T09:55:36.639Z,101310.91
2022-08-20T09:56:38.375Z,101313.41
2022-08-20T09:57:41.058Z,101313.03
2022-08-20T09:58:50.745Z,101308.47
2022-08-20T09:59:59.375Z,101303.06
2022-08-20T10:01:07.295Z,101303.91
2022-08-20T10:02:16.057Z,101304.75
2022-08-20T10:03:19.272Z,101304.53
2022-08-20T10:04:21.072Z,101308.09
2022-08-20T10:05:23.754Z,101302.69
2022-08-20T10:06:25.446Z,101318.53
2022-08-20T10:07:28.226Z,101315.03
2022-08-20T10:08:30.924Z,101313.13
2022-08-20T10:09:33.453Z,101313.13
2022-08-20T10:10:37.900Z,101315.84
2022-08-20T10:11:39.939Z,101304.00
2022-08-20T10:12:43.159Z,101317.16
2022-08-20T10:13:45.876Z,101314.44
2022-08-20T10:14:47.539Z,101317.16
2022-08-20T10:15:50.196Z,101313.81
2022-08-20T10:16:55.720Z,101313.13
2022-08-20T10:18:05.671Z,101320.59
2022-08-20T10:19:09.494Z,101320.59
2022-08-20T10:20:13.313Z,101310.63
2022-08-20T10:21:16.946Z,101318.91
2022-08-20T10:22:18.785Z,101317.91
2022-08-20T10:23:21.467Z,101323.94
2022-08-20T10:24:24.039Z,101322.94
2022-08-20T10:25:26.643Z,101318.16
2022-08-20T10:26:30.042Z,101319.84
2022-08-20T10:27:32.747Z,101316.13
2022-08-20T10:28:34.561Z,101323.03
2022-08-20T10:29:37.654Z,101318.09
2022-08-20T10:30:40.499Z,101322.13
2022-08-20T10:31:42.348Z,101312.13
2022-08-20T10:32:45.255Z,101318.03
2022-08-20T10:33:47.025Z,101315.97
2022-08-20T10:34:49.775Z,101314.94
2022-08-20T10:35:51.438Z,101324.72
2022-08-20T10:36:58.918Z,101315.59
2022-08-20T10:38:00.742Z,101318.28
2022-08-20T10:39:03.380Z,101317.91
2022-08-20T10:40:06.755Z,101313.63
2022-08-20T10:41:09.672Z,101317.47
2022-08-20T10:42:14.357Z,101316.72
2022-08-20T10:43:17.163Z,101320.72
2022-08-20T10:44:19.088Z,101318.66
2022-08-20T10:45:21.763Z,101322.84
2022-08-20T10:46:23.571Z,101319.28
2022-08-20T10:47:28.355Z,101319.28
2022-08-20T10:48:30.170Z,101322.38
2022-08-20T10:49:34.856Z,101319.66
2022-08-20T10:50:37.695Z,101326.50
2022-08-20T10:51:39.342Z,101318.75
2022-08-20T10:52:42.091Z,101318.75
2022-08-20T10:53:44.943Z,101313.31
2022-08-20T10:54:48.511Z,101318.56
2022-08-20T10:55:50.226Z,101318.56
2022-08-20T10:56:52.987Z,101320.44
2022-08-20T10:57:56.983Z,101325.84
2022-08-20T10:58:58.903Z,101326.69
2022-08-20T11:00:02.289Z,101325.47
2022-08-20T11:01:31.161Z,101321.75
2022-08-20T11:02:34.661Z,101328.47
2022-08-20T11:03:37.690Z,101325.38
2022-08-20T11:04:40.958Z,101328.72
2022-08-20T11:05:43.631Z,101325.28
2022-08-20T11:06:45.540Z,101331.00
2022-08-20T11:07:49.808Z,101322.66
2022-08-20T11:08:58.079Z,101324.16
2022-08-20T11:10:01.159Z,101322.13
2022-08-20T11:11:04.887Z,101320.03
2022-08-20T11:12:08.583Z,101320.88
2022-08-20T11:13:13.025Z,101330.88
2022-08-20T11:14:14.780Z,101325.47
2022-08-20T11:15:17.618Z,101330.69
2022-08-20T11:16:20.316Z,101320.03
2022-08-20T11:17:27.009Z,101315.84
2022-08-20T11:18:30.229Z,101326.22
2022-08-20T11:19:32.566Z,101325.97
2022-08-20T11:20:36.172Z,101322.78
2022-08-20T11:21:38.852Z,101322.28
2022-08-20T11:22:40.793Z,101324.31
2022-08-20T11:23:43.429Z,101317.06
2022-08-20T11:24:45.254Z,101316.03
2022-08-20T11:25:50.301Z,101320.25
2022-08-20T11:26:53.352Z,101319.03
2022-08-20T11:27:57.894Z,101326.13
2022-08-20T11:29:01.123Z,101323.88
2022-08-20T11:30:04.484Z,101320.81
2022-08-20T11:31:06.197Z,101314.00
2022-08-20T11:32:08.771Z,101319.88
2022-08-20T11:33:11.688Z,101315.56
2022-08-20T11:34:13.284Z,101324.38
2022-08-20T11:36:39.013Z,101327.06
2022-08-20T11:37:40.714Z,101328.16
2022-08-20T11:38:43.688Z,101323.22
2022-08-20T11:39:45.803Z,101322.66
2022-08-20T11:40:48.561Z,101319.94
2022-08-20T11:41:54.749Z,101321.41
2022-08-20T11:43:14.264Z,101316.00
2022-08-20T11:44:20.938Z,101316.00
2022-08-20T11:45:23.321Z,101318.53
2022-08-20T11:46:28.577Z,101313.91
2022-08-20T11:47:33.606Z,101326.44
2022-08-20T11:48:36.245Z,101323.09
2022-08-20T11:49:38.029Z,101332.63
2022-08-20T11:50:40.627Z,101322.19
2022-08-20T11:51:49.344Z,101330.69
2022-08-20T11:52:53.176Z,101321.28
2022-08-20T11:53:54.955Z,101322.69
2022-08-20T11:54:58.490Z,101321.19
2022-08-20T11:56:01.204Z,101317.00
2022-08-20T11:57:03.969Z,101319.72
2022-08-20T11:58:06.540Z,101328.69
2022-08-20T11:59:09.155Z,101316.63
2022-08-20T12:00:18.780Z,101316.88
2022-08-20T12:01:21.354Z,101321.72
2022-08-20T12:02:23.307Z,101321.16
2022-08-20T12:03:26.123Z,101323.28
2022-08-20T12:04:27.816Z,101326.44
2022-08-20T12:05:31.791Z,101320.00
2022-08-20T12:06:33.770Z,101316.06
2022-08-20T12:07:36.440Z,101324.00
2022-08-20T12:08:39.049Z,101321.97
2022-08-20T12:09:50.602Z,101316.34
2022-08-20T12:10:58.236Z,101312.44
2022-08-20T12:11:59.898Z,101313.69
2022-08-20T12:13:04.709Z,101315.84
2022-08-20T12:14:06.689Z,101319.00
2022-08-20T12:15:11.209Z,101316.75
2022-08-20T12:16:14.648Z,101316.34
2022-08-20T12:17:21.279Z,101313.88
2022-08-20T12:18:23.221Z,101317.25